KCCA/CCA METAR and TAF weather

Enter ICAO airport designator
Station Type Date Time Source
KCCA METAR 2021/03/05 16:55 UTC NOAA

KCCA 051655Z AUTO VRB04KT 10SM SCT055 SCT070 BKN080 09/01 A3022 RMK AO2


Station Type Date Time Source
KCCA Decoded METAR 2021/03/05 16:55 UTC NOAA

Station name not available
Mar 05, 2021 - 11:55 AM EST / 2021.03.05 1655 UTC
Wind: Variable at 5 MPH (4 KT):0
Visibility: 10 mile(s):0
Sky conditions: mostly cloudy
Temperature: 48 F (9 C)
Dew Point: 33 F (1 C)
Relative Humidity: 57%
Pressure (altimeter): 30.22 in. Hg (1023 hPa)
ob: KCCA 051655Z AUTO VRB04KT 10SM SCT055 SCT070 BKN080 09/01 A3022 RMK AO2
cycle: 17

Station Type Date Time Source
KCCA TAF UTC NOAA

Error!

Example: see airport list